Terminal Aerodrome Forecast
Issued by NWS

Home | Current Version | Previous Version | Text Only | Print | Product List | Glossary On
Versions: 1 2 3 4 5 6 7 8 9 10 11 12
000
FTUS44 KSJT 260520
TAFBBD
TAF
KBBD 260520Z 2606/2706 19011G17KT P6SM SKC
     FM261000 19008KT P6SM SCT020
      TEMPO 2612/2616 BKN018
     FM261600 23009KT P6SM SCT250
     FM270300 16008KT P6SM SCT250
      AMD NOT SKED=

USA.gov is the U.S. government's official web portal to all federal, state and local government web resources and services.